Time;durP1;ratioP1;P1;durP2;ratioP2;P2;SDS_P1;SDS_P2;PMS_P1;PMS_P2;Temp;Humidity;BMP_temperature;BMP_pressure;BME280_temperature;BME280_humidity;BME280_pressure;Samples;Min_cycle;Max_cycle;Signal;HPM_P1;HPM_P2
2022/08/05 04:00:15;;;;;;;6.53;2.97;;;18.90;95.30;;;;;;5999610;23;20419;31
2022/08/05 04:02:48;;;;;;;7.03;2.40;;;19.40;93.70;;;;;;4919150;29;20455;-80
2022/08/05 04:05:15;;;;;;;2.40;2.20;;;19.80;93.60;;;;;;4901332;29;20446;-80
2022/08/05 04:07:41;;;;;;;2.37;1.77;;;20.40;92.00;;;;;;4901823;29;20623;-80
2022/08/05 04:10:08;;;;;;;4.97;2.20;;;20.90;90.00;;;;;;4900868;29;20872;-79
2022/08/05 04:12:34;;;;;;;4.67;2.20;;;21.40;87.40;;;;;;4880994;29;20185;-79
2022/08/05 04:14:59;;;;;;;5.10;2.17;;;21.90;85.40;;;;;;4886258;29;20424;-75
2022/08/05 04:17:25;;;;;;;5.63;2.00;;;22.50;84.70;;;;;;4888862;29;20193;-75
2022/08/05 04:19:51;;;;;;;2.20;1.97;;;22.90;85.20;;;;;;4924018;29;20208;-75
2022/08/05 04:22:16;;;;;;;2.23;2.10;;;23.50;82.70;;;;;;4927537;29;20455;-75
2022/08/05 04:24:44;;;;;;;2.17;1.97;;;24.00;82.80;;;;;;4916726;29;20240;-75
2022/08/05 04:27:12;;;;;;;3.20;2.30;;;24.50;79.80;;;;;;4916795;29;20187;-75
2022/08/05 04:29:38;;;;;;;3.40;2.10;;;24.90;79.50;;;;;;4916166;29;20420;-76
2022/08/05 04:32:04;;;;;;;2.20;2.00;;;25.30;80.70;;;;;;4916617;29;21015;-76
2022/08/05 04:34:29;;;;;;;4.00;2.10;;;25.70;79.50;;;;;;4916169;29;20419;-76
2022/08/05 04:36:55;;;;;;;2.53;1.70;;;26.20;76.80;;;;;;4897771;29;20429;-76
2022/08/05 04:39:20;;;;;;;3.43;1.90;;;26.70;77.00;;;;;;4897016;29;20349;-75
2022/08/05 04:41:47;;;;;;;3.13;1.77;;;27.00;75.80;;;;;;4914140;29;20368;-79
2022/08/05 04:44:12;;;;;;;2.10;1.80;;;27.40;74.10;;;;;;4916273;29;20172;-75
2022/08/05 04:46:39;;;;;;;2.47;2.07;;;27.90;74.20;;;;;;4915956;29;20419;-76
2022/08/05 04:49:06;;;;;;;4.13;2.27;;;28.20;73.30;;;;;;4915861;29;20172;-73
2022/08/05 04:51:31;;;;;;;7.67;2.70;;;28.80;70.90;;;;;;4916440;29;20893;-75
2022/08/05 04:53:58;;;;;;;4.47;2.20;;;29.10;70.00;;;;;;4915555;29;20408;-74
2022/08/05 04:56:24;;;;;;;6.70;2.50;;;29.30;70.00;;;;;;4916359;29;20207;-75
2022/08/05 04:58:49;;;;;;;9.13;2.40;;;29.60;70.30;;;;;;4915618;29;20514;-75
2022/08/05 05:01:15;;;;;;;6.00;1.90;;;29.90;69.70;;;;;;4916086;29;20211;-76
2022/08/05 05:03:41;;;;;;;4.27;2.50;;;29.70;67.70;;;;;;4916157;29;20179;-75
2022/08/05 05:06:10;;;;;;;8.70;2.47;;;29.80;68.10;;;;;;4892461;29;20609;-76
2022/08/05 05:08:36;;;;;;;2.07;1.93;;;30.00;67.90;;;;;;4878174;29;20685;-75
2022/08/05 05:11:01;;;;;;;5.50;2.30;;;30.20;66.40;;;;;;4915859;29;20444;-75
2022/08/05 05:13:27;;;;;;;2.43;2.17;;;30.10;67.80;;;;;;4916130;29;20475;-76
2022/08/05 05:15:52;;;;;;;4.40;2.23;;;29.40;69.00;;;;;;4916320;29;20603;-77
2022/08/05 05:18:18;;;;;;;7.27;2.00;;;28.70;70.80;;;;;;4915565;29;20263;-77
2022/08/05 05:20:46;;;;;;;3.13;2.37;;;28.20;72.50;;;;;;4906880;29;20196;-77
2022/08/05 05:23:12;;;;;;;5.97;3.37;;;27.70;74.30;;;;;;4897198;29;20180;-76
2022/08/05 05:25:42;;;;;;;2.93;2.10;;;27.70;73.90;;;;;;4897134;29;20913;-76
2022/08/05 05:28:09;;;;;;;2.50;2.30;;;27.60;74.20;;;;;;4895028;29;20275;-76
2022/08/05 05:30:35;;;;;;;3.30;2.30;;;27.60;75.90;;;;;;4897014;29;20431;-76
2022/08/05 05:33:04;;;;;;;8.33;2.83;;;27.00;77.00;;;;;;4888389;29;20788;-76
2022/08/05 05:35:31;;;;;;;9.43;2.70;;;26.30;79.50;;;;;;4878461;29;20196;-76
2022/08/05 05:37:59;;;;;;;5.63;2.90;;;25.70;81.00;;;;;;4885057;29;20482;-74
2022/08/05 05:40:26;;;;;;;3.17;2.73;;;25.60;82.10;;;;;;4902644;29;20598;-75
2022/08/05 05:42:52;;;;;;;3.60;2.30;;;26.20;81.10;;;;;;4915756;29;20419;-77
2022/08/05 05:45:19;;;;;;;3.17;2.60;;;27.40;77.90;;;;;;4892315;29;20925;-78
2022/08/05 05:47:45;;;;;;;2.50;1.90;;;28.90;74.90;;;;;;4894167;29;20453;-77
2022/08/05 05:50:13;;;;;;;3.17;1.60;;;30.10;70.00;;;;;;4897484;29;20408;-80
2022/08/05 05:52:39;;;;;;;5.60;2.10;;;30.80;68.50;;;;;;4897126;29;20429;-82
2022/08/05 05:55:10;;;;;;;3.20;2.17;;;30.80;67.40;;;;;;4883688;29;20422;-81
2022/08/05 05:57:37;;;;;;;5.10;2.30;;;31.30;65.50;;;;;;4886194;29;20256;-81
2022/08/05 06:00:08;;;;;;;6.73;2.40;;;32.30;65.30;;;;;;4885896;29;20914;-81
2022/08/05 06:02:34;;;;;;;7.38;2.20;;;32.80;65.00;;;;;;4887338;29;20196;-81
2022/08/05 06:04:59;;;;;;;5.63;2.35;;;31.30;65.70;;;;;;4887008;29;20205;-82
2022/08/05 06:07:25;;;;;;;3.58;2.30;;;32.10;65.30;;;;;;4887145;29;20197;-81
2022/08/05 06:09:50;;;;;;;12.43;2.95;;;32.30;64.90;;;;;;4885809;29;20204;-81
2022/08/05 06:12:16;;;;;;;9.93;2.85;;;32.00;65.50;;;;;;4888338;29;20703;-82
2022/08/05 06:14:43;;;;;;;6.17;2.70;;;31.90;67.70;;;;;;4899382;29;20291;-79
2022/08/05 06:17:09;;;;;;;13.23;2.83;;;30.70;70.60;;;;;;4900058;29;20188;-80
2022/08/05 06:19:34;;;;;;;11.03;2.87;;;30.20;73.50;;;;;;4899941;29;20551;-79
2022/08/05 06:22:00;;;;;;;17.13;2.83;;;30.20;74.00;;;;;;4901083;29;20463;-81
2022/08/05 06:24:25;;;;;;;10.40;3.20;;;30.50;73.70;;;;;;4897079;29;20661;-81
2022/08/05 06:26:51;;;;;;;15.57;3.27;;;31.10;74.40;;;;;;4899611;29;20220;-81
2022/08/05 06:29:16;;;;;;;12.67;2.70;;;31.40;73.80;;;;;;4900920;29;20176;-82
2022/08/05 06:31:42;;;;;;;6.07;2.95;;;32.30;72.50;;;;;;4900704;29;20204;-81
2022/08/05 06:34:07;;;;;;;8.45;2.70;;;33.00;71.10;;;;;;4901912;29;20257;-81
2022/08/05 06:36:32;;;;;;;7.93;3.05;;;33.20;70.50;;;;;;4901858;29;20188;-81
2022/08/05 06:38:58;;;;;;;5.32;2.30;;;33.20;70.50;;;;;;4899499;29;20235;-80
2022/08/05 06:41:23;;;;;;;9.55;3.28;;;33.20;70.00;;;;;;4913226;29;20211;-80
2022/08/05 06:43:49;;;;;;;9.97;2.80;;;32.20;72.60;;;;;;4891900;29;20242;-80
2022/08/05 06:46:15;;;;;;;4.93;2.90;;;31.40;74.80;;;;;;4880815;29;20177;-80
2022/08/05 06:48:40;;;;;;;17.70;3.70;;;31.40;75.70;;;;;;4885601;29;20195;-80
2022/08/05 06:51:06;;;;;;;9.73;2.70;;;31.10;77.00;;;;;;4879075;29;20205;-80
2022/08/05 06:53:32;;;;;;;8.53;3.00;;;31.40;77.20;;;;;;4879432;29;20275;-80
2022/08/05 06:55:58;;;;;;;14.80;3.83;;;31.20;77.30;;;;;;4880076;29;20185;-80
2022/08/05 06:58:24;;;;;;;5.37;3.10;;;30.80;78.10;;;;;;4879740;29;20447;-80
2022/08/05 07:00:50;;;;;;;8.07;3.80;;;31.30;76.60;;;;;;4879996;29;20457;-80
2022/08/05 07:03:16;;;;;;;8.63;3.40;;;31.10;77.90;;;;;;4895577;29;20709;-80
2022/08/05 07:05:42;;;;;;;8.40;3.50;;;32.20;75.30;;;;;;4900617;29;20185;-83
2022/08/05 07:08:07;;;;;;;8.27;3.10;;;32.70;74.30;;;;;;4931025;29;20236;-81
2022/08/05 07:10:33;;;;;;;9.82;3.25;;;33.60;73.80;;;;;;4901905;29;20228;-82
2022/08/05 07:18:26;;;;;;;7.55;2.95;;;34.00;71.50;;;;;;4901490;29;20538;-82
2022/08/05 07:20:52;;;;;;;8.98;3.15;;;34.50;70.60;;;;;;4931412;29;20303;-83
2022/08/05 07:23:17;;;;;;;12.85;3.30;;;35.20;68.10;;;;;;4899514;29;20243;-83
2022/08/05 07:25:43;;;;;;;13.13;3.25;;;35.70;67.70;;;;;;4929565;29;20188;-83
2022/08/05 07:28:08;;;;;;;5.95;2.83;;;35.70;68.80;;;;;;4929336;29;20224;-83
2022/08/05 07:30:35;;;;;;;10.82;3.17;;;35.90;68.20;;;;;;4929349;29;20615;-83
2022/08/05 07:33:03;;;;;;;5.60;2.78;;;36.00;67.20;;;;;;4899091;29;20175;-83
2022/08/05 07:35:29;;;;;;;9.10;3.35;;;34.60;68.90;;;;;;4899136;29;20867;-83
2022/08/05 07:37:54;;;;;;;9.30;3.08;;;33.20;71.60;;;;;;4898782;29;20184;-82
2022/08/05 07:40:20;;;;;;;9.20;3.47;;;33.40;72.80;;;;;;4904008;29;20235;-82
2022/08/05 07:42:46;;;;;;;8.30;3.65;;;34.00;71.80;;;;;;4916928;29;20175;-82
2022/08/05 07:45:12;;;;;;;11.73;3.42;;;33.80;71.50;;;;;;4918651;29;20271;-82
2022/08/05 07:47:38;;;;;;;3.50;3.00;;;32.90;73.10;;;;;;4916287;29;20220;-81
2022/08/05 07:50:03;;;;;;;7.35;3.00;;;32.20;74.60;;;;;;4898397;29;20195;-81
2022/08/05 07:52:29;;;;;;;14.60;3.03;;;31.90;75.50;;;;;;4899493;29;20669;-84
2022/08/05 07:54:54;;;;;;;4.93;3.10;;;31.20;77.50;;;;;;4912395;29;20184;-84
2022/08/05 07:57:20;;;;;;;8.63;3.20;;;31.20;78.00;;;;;;4898921;29;20180;-84
2022/08/05 07:59:45;;;;;;;5.83;3.23;;;30.70;78.20;;;;;;4898529;29;20566;-84
2022/08/05 08:02:11;;;;;;;8.67;3.80;;;29.80;79.90;;;;;;4897445;29;20222;-84
2022/08/05 08:04:36;;;;;;;9.50;3.57;;;29.60;82.00;;;;;;4884587;29;20561;-83
2022/08/05 08:07:02;;;;;;;4.60;3.53;;;30.00;80.80;;;;;;4893050;29;20554;-84
2022/08/05 08:09:27;;;;;;;7.03;3.43;;;30.50;80.30;;;;;;4887752;29;20184;-79
2022/08/05 08:11:53;;;;;;;11.27;4.20;;;29.70;80.60;;;;;;4901549;29;20715;-79
2022/08/05 08:14:18;;;;;;;10.90;3.87;;;29.30;82.80;;;;;;4900695;29;20220;-83
2022/08/05 08:16:44;;;;;;;7.20;3.67;;;29.60;83.10;;;;;;4899593;29;20200;-83
2022/08/05 08:19:10;;;;;;;6.47;4.47;;;30.40;80.10;;;;;;4898074;29;20228;-82
2022/08/05 08:21:35;;;;;;;10.17;3.80;;;30.80;77.50;;;;;;4881345;29;20270;-82
2022/08/05 08:24:01;;;;;;;5.70;3.33;;;31.30;78.10;;;;;;4894745;29;20192;-84
2022/08/05 08:26:26;;;;;;;18.87;3.73;;;32.40;77.10;;;;;;4886813;29;20298;-86
2022/08/05 08:28:52;;;;;;;5.30;2.73;;;33.20;75.40;;;;;;4878592;29;20185;-84
2022/08/05 08:31:17;;;;;;;5.63;3.30;;;33.70;74.40;;;;;;4879365;29;20734;-84
2022/08/05 08:33:43;;;;;;;2.87;2.67;;;33.80;73.00;;;;;;4878233;29;20576;-84
2022/08/05 08:36:09;;;;;;;5.18;2.95;;;34.20;72.80;;;;;;4879414;29;20223;-85
2022/08/05 08:38:34;;;;;;;6.15;3.05;;;34.10;72.40;;;;;;4894269;29;20218;-85
2022/08/05 08:41:05;;;;;;;7.05;3.10;;;33.60;73.00;;;;;;4891085;29;20200;-83
2022/08/05 08:43:32;;;;;;;14.25;3.60;;;32.30;74.00;;;;;;4884859;29;20176;-83
2022/08/05 08:46:00;;;;;;;5.87;2.70;;;30.80;77.60;;;;;;4879247;29;20225;-84
2022/08/05 08:48:27;;;;;;;9.73;3.30;;;30.10;79.80;;;;;;4896603;29;20275;-85
2022/08/05 08:50:53;;;;;;;5.10;3.20;;;31.00;79.40;;;;;;4897768;29;20203;-82
2022/08/05 08:53:20;;;;;;;4.80;2.80;;;32.30;76.90;;;;;;4899301;29;20417;-81
2022/08/05 08:55:46;;;;;;;4.10;3.00;;;33.10;76.50;;;;;;4899978;29;20649;-82
2022/08/05 08:58:14;;;;;;;8.57;3.10;;;33.90;73.80;;;;;;4897918;29;20441;-81
2022/08/05 09:00:41;;;;;;;7.53;3.10;;;33.80;72.70;;;;;;4899642;29;20276;-81
2022/08/05 09:03:07;;;;;;;8.50;2.90;;;33.70;72.40;;;;;;4898956;29;20657;-82
2022/08/05 09:05:33;;;;;;;15.27;3.50;;;33.30;74.50;;;;;;4887972;29;20638;-81
2022/08/05 09:07:58;;;;;;;3.80;2.42;;;32.50;74.40;;;;;;4892377;29;20180;-82
2022/08/05 09:10:25;;;;;;;4.22;2.58;;;32.50;74.30;;;;;;4897756;29;20193;-82
2022/08/05 09:12:50;;;;;;;8.63;2.53;;;33.00;76.60;;;;;;4897432;29;20309;-83
2022/08/05 09:15:16;;;;;;;4.80;2.70;;;33.30;73.40;;;;;;4888384;29;20216;-82
2022/08/05 09:17:42;;;;;;;4.07;2.97;;;32.80;75.80;;;;;;4882722;29;20189;-80
2022/08/05 09:20:09;;;;;;;9.23;3.30;;;32.40;74.70;;;;;;4900013;29;20204;-81
2022/08/05 09:23:01;;;;;;;5.13;2.70;;;32.50;76.50;;;;;;4898383;29;20232;-79
2022/08/05 09:25:26;;;;;;;3.80;3.20;;;32.70;75.80;;;;;;4890023;29;20413;-79
2022/08/05 09:27:51;;;;;;;6.33;3.37;;;33.00;75.30;;;;;;4898505;29;20458;-80
2022/08/05 09:30:17;;;;;;;8.10;2.90;;;33.50;73.30;;;;;;4897821;29;20264;-81
2022/08/05 09:32:43;;;;;;;6.27;3.40;;;32.50;75.30;;;;;;4896858;29;20283;-79
2022/08/05 09:35:13;;;;;;;9.97;3.30;;;32.00;75.90;;;;;;4895976;29;20176;-79
2022/08/05 09:37:51;;;;;;;8.57;3.40;;;31.70;77.60;;;;;;4886156;29;20202;-78
2022/08/05 09:40:41;;;;;;;5.60;3.37;;;32.00;78.50;;;;;;4886089;29;20541;-80
2022/08/05 09:43:09;;;;;;;5.47;3.13;;;32.90;76.40;;;;;;4917470;29;20411;-81
2022/08/05 09:45:38;;;;;;;8.97;3.10;;;33.30;72.90;;;;;;4919110;29;20907;-80
2022/08/05 09:48:28;;;;;;;6.80;3.20;;;32.80;74.50;;;;;;4905329;29;21134;-79
2022/08/05 09:50:59;;;;;;;4.23;3.33;;;33.10;73.50;;;;;;4897836;29;20520;-80
2022/08/05 09:53:25;;;;;;;6.97;3.30;;;32.20;76.00;;;;;;4929511;29;20413;-80
2022/08/05 09:55:54;;;;;;;6.70;3.33;;;32.30;76.40;;;;;;4899375;29;20445;-81
2022/08/05 09:58:19;;;;;;;7.40;3.07;;;32.20;74.60;;;;;;4893486;29;20495;-81
2022/08/05 10:01:00;;;;;;;4.07;3.50;;;32.80;76.00;;;;;;4891894;29;20969;-80
2022/08/05 10:03:27;;;;;;;10.97;3.27;;;32.60;76.60;;;;;;4881084;29;20255;-80
2022/08/05 10:06:19;;;;;;;6.23;3.20;;;32.70;73.90;;;;;;4879568;29;20421;-80
2022/08/05 10:08:45;;;;;;;13.17;3.10;;;32.70;75.80;;;;;;4874524;29;20476;-79
2022/08/05 10:11:15;;;;;;;5.97;3.90;;;33.30;75.30;;;;;;4878362;29;20969;-79
2022/08/05 10:13:41;;;;;;;9.83;3.30;;;33.80;74.60;;;;;;4880158;29;20260;-79
2022/08/05 10:16:33;;;;;;;10.20;3.33;;;33.70;74.60;;;;;;4880522;29;20186;-80
2022/08/05 10:19:00;;;;;;;6.80;3.78;;;34.40;73.50;;;;;;4879917;29;20197;-79
2022/08/05 10:21:26;;;;;;;10.85;3.35;;;34.10;74.10;;;;;;4878717;29;20689;-81
2022/08/05 10:23:54;;;;;;;14.38;3.83;;;34.10;72.20;;;;;;4879461;29;20194;-80
2022/08/05 10:26:20;;;;;;;8.30;3.60;;;33.80;71.80;;;;;;4880063;29;20204;-80
2022/08/05 10:28:46;;;;;;;5.35;2.92;;;33.40;74.90;;;;;;4880422;29;20208;-82
2022/08/05 10:31:14;;;;;;;5.70;2.83;;;33.90;73.50;;;;;;4879559;29;20608;-81
2022/08/05 10:33:40;;;;;;;7.78;2.95;;;34.30;70.60;;;;;;4880181;29;20177;-82
2022/08/05 10:36:05;;;;;;;7.13;3.10;;;34.10;71.90;;;;;;4878675;29;20196;-80
2022/08/05 10:38:33;;;;;;;9.73;3.30;;;34.20;72.40;;;;;;4878497;29;20178;-80
2022/08/05 10:41:16;;;;;;;5.13;2.77;;;34.10;70.40;;;;;;4899251;29;20239;-79
2022/08/05 10:43:50;;;;;;;4.90;2.80;;;33.80;71.70;;;;;;4916997;29;20470;-79
2022/08/05 10:46:18;;;;;;;5.43;2.70;;;34.00;73.40;;;;;;4919415;29;20411;-79
2022/08/05 10:49:05;;;;;;;8.83;3.33;;;34.80;70.00;;;;;;4919157;29;20411;-79
2022/08/05 10:51:42;;;;;;;7.07;2.80;;;34.00;72.50;;;;;;4919263;29;20451;-79
2022/08/05 10:54:07;;;;;;;7.40;2.77;;;34.30;70.30;;;;;;4900832;29;20428;-79
2022/08/05 10:56:49;;;;;;;2.93;2.30;;;33.50;71.40;;;;;;4890836;29;20658;-79
2022/08/05 10:59:24;;;;;;;7.82;3.00;;;33.10;71.00;;;;;;4882865;29;20193;-79
2022/08/05 11:02:05;;;;;;;6.27;2.90;;;34.00;70.50;;;;;;4882014;29;20216;-78
2022/08/05 11:04:31;;;;;;;5.60;2.77;;;33.70;69.00;;;;;;4882439;29;20248;-80
2022/08/05 11:06:56;;;;;;;8.53;2.50;;;33.60;70.40;;;;;;4883434;29;20185;-79
2022/08/05 11:09:24;;;;;;;3.90;2.42;;;33.60;71.30;;;;;;4880854;29;20268;-79
2022/08/05 11:11:50;;;;;;;3.20;2.40;;;33.90;68.70;;;;;;4884852;29;20257;-79
2022/08/05 11:14:42;;;;;;;4.18;2.42;;;34.50;70.10;;;;;;4896840;29;20188;-79
2022/08/05 11:17:34;;;;;;;3.38;2.25;;;34.50;68.30;;;;;;4901699;29;20259;-79
2022/08/05 11:20:00;;;;;;;4.68;2.72;;;33.70;68.20;;;;;;4896973;29;20220;-79
2022/08/05 11:22:43;;;;;;;3.35;2.50;;;33.80;66.60;;;;;;4913999;29;20708;-78
2022/08/05 11:25:30;;;;;;;4.28;2.50;;;33.10;70.90;;;;;;4897010;29;20187;-80
2022/08/05 11:28:16;;;;;;;3.00;2.67;;;33.40;69.20;;;;;;4896196;29;20186;-81
2022/08/05 11:30:57;;;;;;;4.73;2.30;;;32.90;69.70;;;;;;4899426;29;20680;-81
2022/08/05 11:33:27;;;;;;;1.90;1.57;;;32.60;68.80;;;;;;4904631;29;20263;-80
2022/08/05 11:35:55;;;;;;;6.70;2.23;;;33.40;66.80;;;;;;4909835;29;20184;-81
2022/08/05 11:38:41;;;;;;;2.20;1.80;;;34.30;66.70;;;;;;4904801;29;20176;-81
2022/08/05 11:41:15;;;;;;;1.93;1.70;;;34.30;62.80;;;;;;4888851;29;20216;-80
2022/08/05 11:44:17;;;;;;;6.23;2.13;;;33.30;65.60;;;;;;4898205;29;20240;-79
2022/08/05 11:46:47;;;;;;;5.70;2.30;;;32.70;67.20;;;;;;4904601;29;20428;-79
2022/08/05 11:49:15;;;;;;;4.00;2.30;;;32.40;70.00;;;;;;4904414;29;20404;-80
2022/08/05 11:51:45;;;;;;;2.73;1.87;;;32.10;70.20;;;;;;4919934;29;20446;-80
2022/08/05 11:54:13;;;;;;;3.10;2.10;;;32.10;70.30;;;;;;4912089;29;20430;-80
2022/08/05 11:56:46;;;;;;;10.87;2.37;;;32.00;70.10;;;;;;4896103;29;20928;-77
2022/08/05 11:59:14;;;;;;;2.67;2.40;;;32.10;72.70;;;;;;4896296;29;20529;-79
2022/08/05 12:01:52;;;;;;;5.77;2.53;;;32.70;72.60;;;;;;4893641;29;20468;-79
2022/08/05 12:04:17;;;;;;;7.67;2.47;;;33.50;70.30;;;;;;4886865;29;20770;-78
2022/08/05 12:06:43;;;;;;;6.87;2.03;;;33.70;67.60;;;;;;4886400;29;20461;-78
2022/08/05 12:09:08;;;;;;;5.30;2.23;;;34.30;69.30;;;;;;4897317;29;20652;-78
2022/08/05 12:11:34;;;;;;;3.63;2.00;;;34.40;66.70;;;;;;4892750;29;20200;-79
2022/08/05 12:14:09;;;;;;;1.90;1.80;;;34.60;66.60;;;;;;4897559;29;20263;-79
2022/08/05 12:16:39;;;;;;;2.42;2.22;;;34.80;65.20;;;;;;4887060;29;20316;-77
2022/08/05 12:19:07;;;;;;;3.17;1.83;;;34.50;65.90;;;;;;4890693;29;20766;-78
2022/08/05 12:21:35;;;;;;;3.47;1.88;;;34.80;62.70;;;;;;4890953;29;20591;-78
2022/08/05 12:24:06;;;;;;;3.42;2.17;;;33.90;66.00;;;;;;4891923;29;20184;-77
2022/08/05 12:26:37;;;;;;;4.07;2.25;;;33.10;65.70;;;;;;4898307;29;20184;-78
2022/08/05 12:29:10;;;;;;;3.08;1.70;;;33.20;67.10;;;;;;4900346;29;20190;-75
2022/08/05 12:31:36;;;;;;;7.03;1.80;;;33.40;64.30;;;;;;4883599;29;20256;-78
2022/08/05 12:34:03;;;;;;;1.97;1.77;;;33.30;68.10;;;;;;4890519;29;20256;-78
2022/08/05 12:36:29;;;;;;;3.80;1.50;;;33.20;67.40;;;;;;4890108;29;20176;-78
2022/08/05 12:38:56;;;;;;;5.78;1.67;;;33.20;64.80;;;;;;4889550;29;20263;-78
2022/08/05 12:41:22;;;;;;;3.73;1.50;;;33.30;64.70;;;;;;4901889;29;20210;-79
2022/08/05 12:43:53;;;;;;;2.30;1.47;;;33.20;66.10;;;;;;4895166;29;20184;-78
2022/08/05 12:46:25;;;;;;;2.07;1.50;;;33.30;65.90;;;;;;4880744;29;20223;-79
2022/08/05 12:49:04;;;;;;;5.10;1.80;;;33.50;66.30;;;;;;4893442;29;20188;-79
2022/08/05 12:51:32;;;;;;;7.07;1.93;;;34.30;64.80;;;;;;4896309;29;20204;-78
2022/08/05 12:54:00;;;;;;;2.57;1.90;;;34.50;63.90;;;;;;4880448;29;20184;-78
2022/08/05 12:56:27;;;;;;;2.80;1.90;;;34.20;65.90;;;;;;4883879;29;20213;-78
2022/08/05 12:59:13;;;;;;;2.05;1.60;;;34.50;65.20;;;;;;4878223;29;20204;-78
2022/08/05 13:01:40;;;;;;;2.08;1.40;;;35.10;63.20;;;;;;4888205;29;20220;-78
2022/08/05 13:04:06;;;;;;;3.60;1.80;;;34.90;63.60;;;;;;4887487;29;20229;-78
2022/08/05 13:06:31;;;;;;;3.77;1.90;;;34.00;63.90;;;;;;4885517;29;20189;-78
2022/08/05 13:09:04;;;;;;;4.90;2.00;;;32.60;64.90;;;;;;4890353;29;20181;-78
2022/08/05 13:11:31;;;;;;;2.87;1.73;;;32.00;68.20;;;;;;4887820;29;20295;-78
2022/08/05 13:13:57;;;;;;;4.83;1.70;;;31.90;67.70;;;;;;4887784;29;20508;-78
2022/08/05 13:16:22;;;;;;;8.97;1.80;;;32.10;69.50;;;;;;4885887;29;20911;-78
2022/08/05 13:18:52;;;;;;;3.10;2.20;;;32.60;69.60;;;;;;4878224;29;20196;-78
2022/08/05 13:21:18;;;;;;;3.90;1.80;;;33.00;67.80;;;;;;4883992;29;20199;-78
2022/08/05 13:23:43;;;;;;;3.30;1.87;;;33.10;67.50;;;;;;4885460;29;20781;-78
2022/08/05 13:26:09;;;;;;;3.90;1.90;;;33.10;69.10;;;;;;4890841;29;20192;-78
2022/08/05 13:28:34;;;;;;;7.00;2.20;;;33.30;66.90;;;;;;4884608;29;20325;-78
2022/08/05 13:30:59;;;;;;;9.40;2.10;;;33.40;68.90;;;;;;4911657;29;20193;-78
2022/08/05 13:33:25;;;;;;;4.17;2.03;;;33.70;68.90;;;;;;4897043;29;20648;-78
2022/08/05 13:35:50;;;;;;;4.00;2.00;;;33.40;67.80;;;;;;4897034;29;20180;-79
2022/08/05 13:38:16;;;;;;;2.70;1.77;;;33.00;68.50;;;;;;4892555;29;20572;-78
2022/08/05 13:40:41;;;;;;;4.83;2.23;;;32.60;67.20;;;;;;4903726;29;20222;-78
2022/08/05 13:43:07;;;;;;;3.27;1.60;;;32.80;66.80;;;;;;4912116;29;20187;-78
2022/08/05 13:45:33;;;;;;;4.43;1.70;;;32.40;68.50;;;;;;4915404;29;20179;-77
2022/08/05 13:47:58;;;;;;;8.93;2.20;;;32.60;67.10;;;;;;4915352;29;20205;-77
2022/08/05 13:50:23;;;;;;;2.70;1.67;;;33.00;67.60;;;;;;4915573;29;20176;-77
2022/08/05 13:52:49;;;;;;;4.57;1.77;;;33.60;64.70;;;;;;4915738;29;20191;-77
2022/08/05 13:55:14;;;;;;;8.40;2.17;;;34.50;67.40;;;;;;4905205;29;20271;-77
2022/08/05 13:57:40;;;;;;;3.38;1.67;;;35.10;64.80;;;;;;4895818;29;20192;-78
2022/08/05 14:00:06;;;;;;;5.15;1.95;;;35.20;63.60;;;;;;4896186;29;20235;-78
2022/08/05 14:02:32;;;;;;;3.63;1.77;;;34.50;63.30;;;;;;4895349;29;20212;-78
2022/08/05 14:05:09;;;;;;;4.60;1.90;;;33.90;65.10;;;;;;4880837;29;20272;-78
2022/08/05 14:07:38;;;;;;;5.68;2.08;;;34.10;64.30;;;;;;4877817;29;20241;-79
2022/08/05 14:10:16;;;;;;;2.17;1.98;;;34.20;65.60;;;;;;4888550;29;20624;-82
2022/08/05 14:12:42;;;;;;;2.45;1.83;;;34.60;64.40;;;;;;4896275;29;20192;-79
2022/08/05 14:15:09;;;;;;;5.28;2.33;;;34.80;64.30;;;;;;4911489;29;20216;-77
2022/08/05 14:17:34;;;;;;;4.55;1.88;;;34.70;64.10;;;;;;4908478;29;20181;-78
2022/08/05 14:20:00;;;;;;;2.75;2.17;;;34.60;62.80;;;;;;4905829;29;20235;-76
2022/08/05 14:22:25;;;;;;;9.18;2.00;;;34.60;63.30;;;;;;4906507;29;20220;-79
2022/08/05 14:24:51;;;;;;;2.95;1.80;;;34.00;65.00;;;;;;4888994;29;20185;-80
2022/08/05 14:27:16;;;;;;;3.45;1.90;;;33.50;65.80;;;;;;4885956;29;20189;-79
2022/08/05 14:29:42;;;;;;;3.22;1.75;;;33.80;66.30;;;;;;4884966;29;20188;-79
2022/08/05 14:32:07;;;;;;;2.35;1.65;;;33.40;65.20;;;;;;4885332;29;20205;-79
2022/08/05 14:34:33;;;;;;;4.53;1.60;;;33.10;67.40;;;;;;4883520;29;20205;-80
2022/08/05 14:36:59;;;;;;;8.30;2.22;;;33.30;66.70;;;;;;4895106;29;20683;-80
2022/08/05 14:39:24;;;;;;;6.63;1.93;;;33.30;66.90;;;;;;4900424;29;20200;-79
2022/08/05 14:41:50;;;;;;;4.40;1.88;;;33.10;65.10;;;;;;4917745;29;20635;-76
2022/08/05 14:44:16;;;;;;;10.75;1.73;;;33.00;67.80;;;;;;4919008;29;20171;-78
2022/08/05 14:46:42;;;;;;;4.07;2.00;;;32.60;67.30;;;;;;4917616;29;20266;-79
2022/08/05 14:49:07;;;;;;;2.13;1.67;;;32.20;68.20;;;;;;4884845;29;20272;-79
2022/08/05 14:51:34;;;;;;;3.40;1.90;;;32.10;68.80;;;;;;4886294;29;20631;-79
2022/08/05 14:53:59;;;;;;;3.47;1.87;;;32.00;69.10;;;;;;4880156;29;20184;-79
2022/08/05 14:56:25;;;;;;;2.23;1.73;;;32.80;70.00;;;;;;4881100;29;20233;-79
2022/08/05 14:58:50;;;;;;;3.93;1.83;;;33.00;69.20;;;;;;4881136;29;20169;-79
2022/08/05 15:01:18;;;;;;;3.60;2.30;;;33.10;68.40;;;;;;4880257;29;20213;-79
2022/08/05 15:03:43;;;;;;;1.97;1.77;;;32.60;68.60;;;;;;4880689;29;20316;-79
2022/08/05 15:06:09;;;;;;;4.00;2.13;;;32.60;67.50;;;;;;4880961;29;20448;-79
2022/08/05 15:08:34;;;;;;;3.33;1.87;;;32.70;68.30;;;;;;4880642;29;20638;-78
2022/08/05 15:11:00;;;;;;;5.77;2.10;;;32.90;68.00;;;;;;4880645;29;20205;-78
2022/08/05 15:13:25;;;;;;;5.07;1.90;;;33.30;67.50;;;;;;4880747;29;20220;-78
2022/08/05 15:15:51;;;;;;;4.17;2.20;;;33.50;67.20;;;;;;4880410;29;20188;-78
2022/08/05 15:18:16;;;;;;;8.63;3.03;;;33.50;67.60;;;;;;4880375;29;20694;-78
2022/08/05 15:20:42;;;;;;;8.00;1.97;;;33.30;67.70;;;;;;4880557;29;20209;-79
2022/08/05 15:23:09;;;;;;;3.90;2.20;;;33.30;68.00;;;;;;4880688;29;20634;-78
2022/08/05 15:25:35;;;;;;;9.40;1.97;;;33.10;68.40;;;;;;4880511;29;20181;-77
2022/08/05 15:28:01;;;;;;;5.70;2.30;;;32.70;68.70;;;;;;4880411;29;20406;-78
2022/08/05 15:30:27;;;;;;;2.13;1.77;;;32.10;70.20;;;;;;4879744;29;20185;-78
2022/08/05 15:32:54;;;;;;;2.70;1.97;;;32.10;70.60;;;;;;4880374;29;20204;-78
2022/08/05 15:35:20;;;;;;;6.67;1.97;;;32.00;70.10;;;;;;4880633;29;20410;-78
2022/08/05 15:37:45;;;;;;;3.93;2.23;;;31.90;70.00;;;;;;4880383;29;20421;-78
2022/08/05 15:40:11;;;;;;;5.27;2.07;;;31.80;70.00;;;;;;4888283;29;20211;-78
2022/08/05 15:42:37;;;;;;;4.07;2.10;;;31.80;70.70;;;;;;4900699;29;20208;-77
2022/08/05 15:45:03;;;;;;;2.83;1.97;;;31.70;71.00;;;;;;4893642;29;20180;-78
2022/08/05 15:47:28;;;;;;;2.70;1.60;;;31.70;72.10;;;;;;4898601;29;20199;-78
2022/08/05 15:49:53;;;;;;;6.57;2.27;;;31.70;71.10;;;;;;4897052;29;20338;-79
2022/08/05 15:52:20;;;;;;;3.40;2.17;;;31.90;71.60;;;;;;4912953;29;20547;-79
2022/08/05 15:54:45;;;;;;;2.53;1.90;;;31.90;70.80;;;;;;4898552;29;20187;-78
2022/08/05 15:57:11;;;;;;;8.57;3.17;;;31.60;71.60;;;;;;4898396;29;20416;-77
2022/08/05 15:59:37;;;;;;;2.50;1.67;;;31.20;72.00;;;;;;4898200;29;20227;-77
2022/08/05 16:02:02;;;;;;;2.43;1.87;;;31.20;72.50;;;;;;4897447;29;20621;-78
2022/08/05 16:04:28;;;;;;;3.20;1.87;;;31.10;72.20;;;;;;4898032;29;20212;-76
2022/08/05 16:06:53;;;;;;;6.50;1.63;;;31.20;71.30;;;;;;4898499;29;20637;-79
2022/08/05 16:09:19;;;;;;;8.17;2.00;;;30.90;71.80;;;;;;4902316;29;20180;-78
2022/08/05 16:11:45;;;;;;;3.17;1.77;;;30.80;72.60;;;;;;4917202;29;20196;-77
2022/08/05 16:14:11;;;;;;;5.00;1.80;;;30.70;73.40;;;;;;4917237;29;20188;-77
2022/08/05 16:16:36;;;;;;;5.30;2.00;;;30.60;73.50;;;;;;4917060;29;20439;-78
2022/08/05 16:19:02;;;;;;;8.10;1.90;;;30.50;74.00;;;;;;4915434;29;20698;-80
2022/08/05 16:21:28;;;;;;;6.43;1.73;;;30.30;73.90;;;;;;4915685;29;20373;-81
2022/08/05 16:23:53;;;;;;;3.63;1.73;;;30.30;72.70;;;;;;4916904;29;20186;-77
2022/08/05 16:26:19;;;;;;;2.10;1.90;;;30.20;72.90;;;;;;4916869;29;20199;-77
2022/08/05 16:28:45;;;;;;;1.87;1.67;;;30.10;73.60;;;;;;4916805;29;20176;-78
2022/08/05 16:31:10;;;;;;;2.27;1.70;;;29.90;73.10;;;;;;4916789;29;20188;-78
2022/08/05 16:33:36;;;;;;;2.80;2.00;;;29.80;73.20;;;;;;4916652;29;20539;-78
2022/08/05 16:36:02;;;;;;;3.20;1.90;;;29.60;74.00;;;;;;4915485;29;20191;-78
2022/08/05 16:38:28;;;;;;;10.80;2.40;;;29.60;75.30;;;;;;4916291;29;20185;-78
2022/08/05 16:40:56;;;;;;;4.33;1.53;;;29.40;75.70;;;;;;4906345;29;20468;-78
2022/08/05 16:43:23;;;;;;;7.03;1.90;;;29.40;75.60;;;;;;4897510;29;20267;-78
2022/08/05 16:45:49;;;;;;;2.70;1.47;;;29.20;75.80;;;;;;4897643;29;20484;-78
2022/08/05 16:48:15;;;;;;;3.00;2.70;;;29.10;75.90;;;;;;4897439;29;20473;-77
2022/08/05 16:50:40;;;;;;;2.20;1.47;;;29.00;76.70;;;;;;4897462;29;20444;-76
2022/08/05 16:53:06;;;;;;;2.30;1.30;;;28.40;76.80;;;;;;4897543;29;20181;-76